sensor_id;sensor_type;location;lat;lon;timestamp;temperature;humidity
19483;DHT22;9882;51.166;6.992;2023-06-24T00:00:13;23.60;99.90
19483;DHT22;9882;51.166;6.992;2023-06-24T00:02:46;23.60;99.90
19483;DHT22;9882;51.166;6.992;2023-06-24T00:05:18;23.50;99.90
19483;DHT22;9882;51.166;6.992;2023-06-24T00:07:47;23.60;99.90
19483;DHT22;9882;51.166;6.992;2023-06-24T00:10:17;23.50;99.90
19483;DHT22;9882;51.166;6.992;2023-06-24T00:12:46;23.50;99.90
19483;DHT22;9882;51.166;6.992;2023-06-24T00:15:15;23.50;99.90
19483;DHT22;9882;51.166;6.992;2023-06-24T00:17:45;23.50;99.90
19483;DHT22;9882;51.166;6.992;2023-06-24T00:20:18;23.50;99.90
19483;DHT22;9882;51.166;6.992;2023-06-24T00:22:47;23.50;99.90
19483;DHT22;9882;51.166;6.992;2023-06-24T00:25:17;23.40;99.90
19483;DHT22;9882;51.166;6.992;2023-06-24T00:27:46;23.40;99.90
19483;DHT22;9882;51.166;6.992;2023-06-24T00:30:16;23.30;99.90
19483;DHT22;9882;51.166;6.992;2023-06-24T00:32:45;23.30;99.90
19483;DHT22;9882;51.166;6.992;2023-06-24T00:35:19;23.30;99.90
19483;DHT22;9882;51.166;6.992;2023-06-24T00:37:48;23.20;99.90
19483;DHT22;9882;51.166;6.992;2023-06-24T00:40:19;23.20;99.90
19483;DHT22;9882;51.166;6.992;2023-06-24T00:42:48;23.10;99.90
19483;DHT22;9882;51.166;6.992;2023-06-24T00:45:19;23.00;99.90
19483;DHT22;9882;51.166;6.992;2023-06-24T00:47:49;23.00;99.90
19483;DHT22;9882;51.166;6.992;2023-06-24T00:50:20;23.00;99.90
19483;DHT22;9882;51.166;6.992;2023-06-24T00:52:53;22.90;99.90
19483;DHT22;9882;51.166;6.992;2023-06-24T00:55:23;22.80;99.90
19483;DHT22;9882;51.166;6.992;2023-06-24T00:57:53;22.90;99.90
19483;DHT22;9882;51.166;6.992;2023-06-24T01:00:22;22.80;99.90
19483;DHT22;9882;51.166;6.992;2023-06-24T01:02:52;22.80;99.90
19483;DHT22;9882;51.166;6.992;2023-06-24T01:05:24;22.70;99.90
19483;DHT22;9882;51.166;6.992;2023-06-24T01:07:53;22.70;99.90
19483;DHT22;9882;51.166;6.992;2023-06-24T01:10:24;22.60;99.90
19483;DHT22;9882;51.166;6.992;2023-06-24T01:12:54;22.60;99.90
19483;DHT22;9882;51.166;6.992;2023-06-24T01:15:25;22.60;99.90
19483;DHT22;9882;51.166;6.992;2023-06-24T01:18:01;22.60;99.90
19483;DHT22;9882;51.166;6.992;2023-06-24T01:20:41;22.60;99.90
19483;DHT22;9882;51.166;6.992;2023-06-24T01:23:38;22.60;99.90
19483;DHT22;9882;51.166;6.992;2023-06-24T01:26:29;22.50;99.90
19483;DHT22;9882;51.166;6.992;2023-06-24T01:29:41;22.50;99.90
19483;DHT22;9882;51.166;6.992;2023-06-24T01:32:21;22.40;99.90
19483;DHT22;9882;51.166;6.992;2023-06-24T01:34:56;22.30;99.90
19483;DHT22;9882;51.166;6.992;2023-06-24T01:37:31;22.30;99.90
19483;DHT22;9882;51.166;6.992;2023-06-24T01:40:06;22.30;99.90
19483;DHT22;9882;51.166;6.992;2023-06-24T01:42:41;22.20;99.90
19483;DHT22;9882;51.166;6.992;2023-06-24T01:45:13;22.20;99.90
19483;DHT22;9882;51.166;6.992;2023-06-24T01:47:47;22.20;99.90
19483;DHT22;9882;51.166;6.992;2023-06-24T01:50:21;22.10;99.90
19483;DHT22;9882;51.166;6.992;2023-06-24T01:52:53;22.10;99.90
19483;DHT22;9882;51.166;6.992;2023-06-24T01:55:25;22.00;99.90
19483;DHT22;9882;51.166;6.992;2023-06-24T01:57:57;22.00;99.90
19483;DHT22;9882;51.166;6.992;2023-06-24T02:00:29;21.90;99.90
19483;DHT22;9882;51.166;6.992;2023-06-24T02:03:01;21.90;99.90
19483;DHT22;9882;51.166;6.992;2023-06-24T02:05:34;21.90;99.90
19483;DHT22;9882;51.166;6.992;2023-06-24T02:08:05;21.80;99.90
19483;DHT22;9882;51.166;6.992;2023-06-24T02:10:56;21.80;99.90
19483;DHT22;9882;51.166;6.992;2023-06-24T02:13:29;21.80;99.90
19483;DHT22;9882;51.166;6.992;2023-06-24T02:16:00;21.80;99.90
19483;DHT22;9882;51.166;6.992;2023-06-24T02:18:34;21.80;99.90
19483;DHT22;9882;51.166;6.992;2023-06-24T02:21:05;21.80;99.90
19483;DHT22;9882;51.166;6.992;2023-06-24T02:23:36;21.80;99.90
19483;DHT22;9882;51.166;6.992;2023-06-24T02:26:06;21.80;99.90
19483;DHT22;9882;51.166;6.992;2023-06-24T02:28:37;21.70;99.90
19483;DHT22;9882;51.166;6.992;2023-06-24T02:31:09;21.70;99.90
19483;DHT22;9882;51.166;6.992;2023-06-24T02:33:42;21.70;99.90
19483;DHT22;9882;51.166;6.992;2023-06-24T02:36:12;21.70;99.90
19483;DHT22;9882;51.166;6.992;2023-06-24T02:38:43;21.60;99.90
19483;DHT22;9882;51.166;6.992;2023-06-24T02:41:13;21.60;99.90
19483;DHT22;9882;51.166;6.992;2023-06-24T02:43:42;21.60;99.90
19483;DHT22;9882;51.166;6.992;2023-06-24T02:46:14;21.50;99.90
19483;DHT22;9882;51.166;6.992;2023-06-24T02:48:47;21.50;99.90
19483;DHT22;9882;51.166;6.992;2023-06-24T02:51:18;21.40;99.90
19483;DHT22;9882;51.166;6.992;2023-06-24T02:53:49;21.40;99.90
19483;DHT22;9882;51.166;6.992;2023-06-24T02:56:25;21.40;99.90
19483;DHT22;9882;51.166;6.992;2023-06-24T02:58:56;21.30;99.90
19483;DHT22;9882;51.166;6.992;2023-06-24T03:01:27;21.30;99.90
19483;DHT22;9882;51.166;6.992;2023-06-24T03:04:00;21.30;99.90
19483;DHT22;9882;51.166;6.992;2023-06-24T03:06:31;21.30;99.90
19483;DHT22;9882;51.166;6.992;2023-06-24T03:09:04;21.20;99.90
19483;DHT22;9882;51.166;6.992;2023-06-24T03:11:42;21.20;99.90
19483;DHT22;9882;51.166;6.992;2023-06-24T03:14:17;21.20;99.90
19483;DHT22;9882;51.166;6.992;2023-06-24T03:16:47;21.10;99.90
19483;DHT22;9882;51.166;6.992;2023-06-24T03:19:21;21.20;99.90
19483;DHT22;9882;51.166;6.992;2023-06-24T03:21:51;21.20;99.90
19483;DHT22;9882;51.166;6.992;2023-06-24T03:24:20;21.20;99.90
19483;DHT22;9882;51.166;6.992;2023-06-24T03:26:50;21.10;99.90
19483;DHT22;9882;51.166;6.992;2023-06-24T03:29:29;21.10;99.90
19483;DHT22;9882;51.166;6.992;2023-06-24T03:32:13;21.10;99.90
19483;DHT22;9882;51.166;6.992;2023-06-24T03:34:45;21.10;99.90
19483;DHT22;9882;51.166;6.992;2023-06-24T03:37:14;21.10;99.90
19483;DHT22;9882;51.166;6.992;2023-06-24T03:39:44;21.00;99.90
19483;DHT22;9882;51.166;6.992;2023-06-24T03:42:14;21.00;99.90
19483;DHT22;9882;51.166;6.992;2023-06-24T03:44:44;21.00;99.90
19483;DHT22;9882;51.166;6.992;2023-06-24T03:47:14;21.00;99.90
19483;DHT22;9882;51.166;6.992;2023-06-24T03:49:45;20.90;99.90
19483;DHT22;9882;51.166;6.992;2023-06-24T03:52:16;20.90;99.90
19483;DHT22;9882;51.166;6.992;2023-06-24T03:54:45;20.80;99.90
19483;DHT22;9882;51.166;6.992;2023-06-24T03:57:15;20.80;99.90
19483;DHT22;9882;51.166;6.992;2023-06-24T03:59:45;20.80;99.90
19483;DHT22;9882;51.166;6.992;2023-06-24T04:02:15;20.80;99.90
19483;DHT22;9882;51.166;6.992;2023-06-24T04:04:46;20.70;99.90
19483;DHT22;9882;51.166;6.992;2023-06-24T04:07:18;20.70;99.90
19483;DHT22;9882;51.166;6.992;2023-06-24T04:09:57;20.70;99.90
19483;DHT22;9882;51.166;6.992;2023-06-24T04:12:26;20.70;99.90
19483;DHT22;9882;51.166;6.992;2023-06-24T04:14:56;20.60;99.90
19483;DHT22;9882;51.166;6.992;2023-06-24T04:17:27;20.60;99.90
19483;DHT22;9882;51.166;6.992;2023-06-24T04:20:00;20.70;99.90
19483;DHT22;9882;51.166;6.992;2023-06-24T04:22:34;20.70;99.90
19483;DHT22;9882;51.166;6.992;2023-06-24T04:25:04;20.70;99.90
19483;DHT22;9882;51.166;6.992;2023-06-24T04:27:37;20.60;99.90
19483;DHT22;9882;51.166;6.992;2023-06-24T04:30:09;20.70;99.90
19483;DHT22;9882;51.166;6.992;2023-06-24T04:32:40;20.60;99.90
19483;DHT22;9882;51.166;6.992;2023-06-24T04:35:12;20.70;99.90
19483;DHT22;9882;51.166;6.992;2023-06-24T04:37:42;20.60;99.90
19483;DHT22;9882;51.166;6.992;2023-06-24T04:40:13;20.60;99.90
19483;DHT22;9882;51.166;6.992;2023-06-24T04:42:43;20.60;99.90
19483;DHT22;9882;51.166;6.992;2023-06-24T04:45:13;20.60;99.90
19483;DHT22;9882;51.166;6.992;2023-06-24T04:47:42;20.60;99.90
19483;DHT22;9882;51.166;6.992;2023-06-24T04:50:13;20.50;99.90
19483;DHT22;9882;51.166;6.992;2023-06-24T04:52:43;20.50;99.90
19483;DHT22;9882;51.166;6.992;2023-06-24T04:55:12;20.50;99.90
19483;DHT22;9882;51.166;6.992;2023-06-24T04:57:41;20.50;99.90
19483;DHT22;9882;51.166;6.992;2023-06-24T05:00:11;20.50;99.90
19483;DHT22;9882;51.166;6.992;2023-06-24T05:02:41;20.50;99.90
19483;DHT22;9882;51.166;6.992;2023-06-24T05:05:10;20.40;99.90
19483;DHT22;9882;51.166;6.992;2023-06-24T05:07:45;20.30;99.90
19483;DHT22;9882;51.166;6.992;2023-06-24T05:10:56;20.30;99.90
19483;DHT22;9882;51.166;6.992;2023-06-24T05:13:28;20.20;99.90
19483;DHT22;9882;51.166;6.992;2023-06-24T05:15:57;20.20;99.90
19483;DHT22;9882;51.166;6.992;2023-06-24T05:18:25;20.20;99.90
19483;DHT22;9882;51.166;6.992;2023-06-24T05:20:54;20.20;99.90
19483;DHT22;9882;51.166;6.992;2023-06-24T05:23:24;20.10;99.90
19483;DHT22;9882;51.166;6.992;2023-06-24T05:25:52;20.20;99.90
19483;DHT22;9882;51.166;6.992;2023-06-24T05:28:21;20.20;99.90
19483;DHT22;9882;51.166;6.992;2023-06-24T05:30:49;20.40;99.90
19483;DHT22;9882;51.166;6.992;2023-06-24T05:33:18;20.30;99.90
19483;DHT22;9882;51.166;6.992;2023-06-24T05:35:46;20.40;99.90
19483;DHT22;9882;51.166;6.992;2023-06-24T05:38:15;20.20;99.90
19483;DHT22;9882;51.166;6.992;2023-06-24T05:40:45;20.20;99.90
19483;DHT22;9882;51.166;6.992;2023-06-24T05:43:13;20.20;99.90
19483;DHT22;9882;51.166;6.992;2023-06-24T05:45:42;20.10;99.90
19483;DHT22;9882;51.166;6.992;2023-06-24T05:48:12;20.10;99.90
19483;DHT22;9882;51.166;6.992;2023-06-24T05:50:41;20.20;99.90
19483;DHT22;9882;51.166;6.992;2023-06-24T05:53:10;20.10;99.90
19483;DHT22;9882;51.166;6.992;2023-06-24T05:55:38;20.00;99.90
19483;DHT22;9882;51.166;6.992;2023-06-24T05:58:08;20.10;99.90
19483;DHT22;9882;51.166;6.992;2023-06-24T06:00:37;20.10;99.90
19483;DHT22;9882;51.166;6.992;2023-06-24T06:03:05;20.10;99.90
19483;DHT22;9882;51.166;6.992;2023-06-24T06:05:38;20.10;99.90
19483;DHT22;9882;51.166;6.992;2023-06-24T06:08:06;20.20;99.90
19483;DHT22;9882;51.166;6.992;2023-06-24T06:10:35;20.10;99.90
19483;DHT22;9882;51.166;6.992;2023-06-24T06:13:03;20.00;99.90
19483;DHT22;9882;51.166;6.992;2023-06-24T06:15:33;19.70;99.90
19483;DHT22;9882;51.166;6.992;2023-06-24T06:18:02;19.50;99.90
19483;DHT22;9882;51.166;6.992;2023-06-24T06:20:31;19.80;99.90
19483;DHT22;9882;51.166;6.992;2023-06-24T06:22:59;20.00;99.90
19483;DHT22;9882;51.166;6.992;2023-06-24T06:25:28;20.10;99.90
19483;DHT22;9882;51.166;6.992;2023-06-24T06:27:56;20.00;99.90
19483;DHT22;9882;51.166;6.992;2023-06-24T06:30:25;20.10;99.90
19483;DHT22;9882;51.166;6.992;2023-06-24T06:32:55;20.00;99.90
19483;DHT22;9882;51.166;6.992;2023-06-24T06:35:23;19.90;99.90
19483;DHT22;9882;51.166;6.992;2023-06-24T06:37:52;20.00;99.90
19483;DHT22;9882;51.166;6.992;2023-06-24T06:40:23;20.10;99.90
19483;DHT22;9882;51.166;6.992;2023-06-24T06:42:51;20.10;99.90
19483;DHT22;9882;51.166;6.992;2023-06-24T06:45:20;20.10;99.90
19483;DHT22;9882;51.166;6.992;2023-06-24T06:47:49;20.00;99.90
19483;DHT22;9882;51.166;6.992;2023-06-24T06:50:19;19.80;99.90
19483;DHT22;9882;51.166;6.992;2023-06-24T06:52:47;19.90;99.90
19483;DHT22;9882;51.166;6.992;2023-06-24T06:55:16;20.00;99.90
19483;DHT22;9882;51.166;6.992;2023-06-24T06:57:45;20.00;99.90
19483;DHT22;9882;51.166;6.992;2023-06-24T07:00:13;20.10;99.90
19483;DHT22;9882;51.166;6.992;2023-06-24T07:02:42;20.10;99.90
19483;DHT22;9882;51.166;6.992;2023-06-24T07:05:11;20.20;99.90
19483;DHT22;9882;51.166;6.992;2023-06-24T07:07:40;20.30;99.90
19483;DHT22;9882;51.166;6.992;2023-06-24T07:10:11;20.20;99.90
19483;DHT22;9882;51.166;6.992;2023-06-24T07:12:40;20.30;99.90
19483;DHT22;9882;51.166;6.992;2023-06-24T07:15:09;20.30;99.90
19483;DHT22;9882;51.166;6.992;2023-06-24T07:17:40;20.20;99.90
19483;DHT22;9882;51.166;6.992;2023-06-24T07:20:09;20.30;99.90
19483;DHT22;9882;51.166;6.992;2023-06-24T07:22:38;20.40;99.90
19483;DHT22;9882;51.166;6.992;2023-06-24T07:25:08;20.50;99.90
19483;DHT22;9882;51.166;6.992;2023-06-24T07:27:36;20.60;99.90
19483;DHT22;9882;51.166;6.992;2023-06-24T07:30:06;20.50;99.90
19483;DHT22;9882;51.166;6.992;2023-06-24T07:32:35;20.70;99.90
19483;DHT22;9882;51.166;6.992;2023-06-24T07:35:05;20.80;99.90
19483;DHT22;9882;51.166;6.992;2023-06-24T07:37:34;20.70;99.90
19483;DHT22;9882;51.166;6.992;2023-06-24T07:40:03;20.70;99.90
19483;DHT22;9882;51.166;6.992;2023-06-24T07:42:34;20.80;99.90
19483;DHT22;9882;51.166;6.992;2023-06-24T07:45:03;20.90;99.90
19483;DHT22;9882;51.166;6.992;2023-06-24T07:47:32;20.90;99.90
19483;DHT22;9882;51.166;6.992;2023-06-24T07:50:01;20.90;99.90
19483;DHT22;9882;51.166;6.992;2023-06-24T07:52:29;21.00;99.90
19483;DHT22;9882;51.166;6.992;2023-06-24T07:54:58;21.00;99.90
19483;DHT22;9882;51.166;6.992;2023-06-24T07:57:27;21.00;99.90
19483;DHT22;9882;51.166;6.992;2023-06-24T07:59:57;21.30;99.90
19483;DHT22;9882;51.166;6.992;2023-06-24T08:02:25;21.20;99.90
19483;DHT22;9882;51.166;6.992;2023-06-24T08:04:54;21.30;99.90
19483;DHT22;9882;51.166;6.992;2023-06-24T08:07:23;21.40;99.90
19483;DHT22;9882;51.166;6.992;2023-06-24T08:09:51;21.50;99.90
19483;DHT22;9882;51.166;6.992;2023-06-24T08:12:20;21.70;99.90
19483;DHT22;9882;51.166;6.992;2023-06-24T08:14:48;21.80;99.90
19483;DHT22;9882;51.166;6.992;2023-06-24T08:17:18;21.90;99.90
19483;DHT22;9882;51.166;6.992;2023-06-24T08:19:46;21.80;99.90
19483;DHT22;9882;51.166;6.992;2023-06-24T08:22:15;22.00;99.90
19483;DHT22;9882;51.166;6.992;2023-06-24T08:24:43;22.20;99.90
19483;DHT22;9882;51.166;6.992;2023-06-24T08:30:36;22.00;99.90
19483;DHT22;9882;51.166;6.992;2023-06-24T08:33:06;22.00;99.90
19483;DHT22;9882;51.166;6.992;2023-06-24T08:35:34;22.30;99.90
19483;DHT22;9882;51.166;6.992;2023-06-24T08:38:03;22.30;99.90
19483;DHT22;9882;51.166;6.992;2023-06-24T08:40:31;22.30;99.90
19483;DHT22;9882;51.166;6.992;2023-06-24T08:43:00;22.30;99.90
19483;DHT22;9882;51.166;6.992;2023-06-24T08:45:28;22.30;99.90
19483;DHT22;9882;51.166;6.992;2023-06-24T08:47:58;22.50;99.90
19483;DHT22;9882;51.166;6.992;2023-06-24T08:50:34;22.50;99.90
19483;DHT22;9882;51.166;6.992;2023-06-24T08:53:05;22.40;99.90
19483;DHT22;9882;51.166;6.992;2023-06-24T08:55:39;22.40;99.90
19483;DHT22;9882;51.166;6.992;2023-06-24T08:58:09;22.40;99.90
19483;DHT22;9882;51.166;6.992;2023-06-24T09:00:37;22.30;99.90
19483;DHT22;9882;51.166;6.992;2023-06-24T09:03:06;22.40;99.90
19483;DHT22;9882;51.166;6.992;2023-06-24T09:05:36;22.30;99.90
19483;DHT22;9882;51.166;6.992;2023-06-24T09:08:05;22.40;99.90
19483;DHT22;9882;51.166;6.992;2023-06-24T09:10:35;22.50;99.90
19483;DHT22;9882;51.166;6.992;2023-06-24T09:13:04;22.40;99.90
19483;DHT22;9882;51.166;6.992;2023-06-24T09:15:34;22.40;99.90
19483;DHT22;9882;51.166;6.992;2023-06-24T09:18:04;22.60;99.90
19483;DHT22;9882;51.166;6.992;2023-06-24T09:20:33;22.70;99.90
19483;DHT22;9882;51.166;6.992;2023-06-24T09:23:08;23.00;99.90
19483;DHT22;9882;51.166;6.992;2023-06-24T09:25:37;23.00;99.90
19483;DHT22;9882;51.166;6.992;2023-06-24T09:28:06;23.00;99.90
19483;DHT22;9882;51.166;6.992;2023-06-24T09:30:34;23.20;99.90
19483;DHT22;9882;51.166;6.992;2023-06-24T09:33:03;23.30;99.90
19483;DHT22;9882;51.166;6.992;2023-06-24T09:35:35;23.30;99.90
19483;DHT22;9882;51.166;6.992;2023-06-24T09:38:04;23.40;99.90
19483;DHT22;9882;51.166;6.992;2023-06-24T09:40:36;23.30;99.90
19483;DHT22;9882;51.166;6.992;2023-06-24T09:43:04;23.10;99.90
19483;DHT22;9882;51.166;6.992;2023-06-24T09:45:33;23.30;99.90
19483;DHT22;9882;51.166;6.992;2023-06-24T09:48:02;23.50;99.90
19483;DHT22;9882;51.166;6.992;2023-06-24T09:50:31;23.60;99.90
19483;DHT22;9882;51.166;6.992;2023-06-24T09:52:59;23.80;99.90
19483;DHT22;9882;51.166;6.992;2023-06-24T09:55:28;23.70;99.90
19483;DHT22;9882;51.166;6.992;2023-06-24T09:57:59;23.80;99.90
19483;DHT22;9882;51.166;6.992;2023-06-24T10:00:27;23.70;99.90
19483;DHT22;9882;51.166;6.992;2023-06-24T10:02:56;23.80;99.90
19483;DHT22;9882;51.166;6.992;2023-06-24T10:05:26;24.00;99.90
19483;DHT22;9882;51.166;6.992;2023-06-24T10:07:55;24.00;99.90
19483;DHT22;9882;51.166;6.992;2023-06-24T10:10:23;23.90;99.90
19483;DHT22;9882;51.166;6.992;2023-06-24T10:12:52;24.20;99.90
19483;DHT22;9882;51.166;6.992;2023-06-24T10:15:22;23.90;99.90
19483;DHT22;9882;51.166;6.992;2023-06-24T10:17:50;24.30;99.90
19483;DHT22;9882;51.166;6.992;2023-06-24T10:20:25;24.40;99.90
19483;DHT22;9882;51.166;6.992;2023-06-24T10:22:54;24.20;99.90
19483;DHT22;9882;51.166;6.992;2023-06-24T10:25:23;24.20;99.90
19483;DHT22;9882;51.166;6.992;2023-06-24T10:27:54;24.20;99.90
19483;DHT22;9882;51.166;6.992;2023-06-24T10:30:24;24.10;99.90
19483;DHT22;9882;51.166;6.992;2023-06-24T10:32:55;24.40;99.90
19483;DHT22;9882;51.166;6.992;2023-06-24T10:35:25;24.50;99.90
19483;DHT22;9882;51.166;6.992;2023-06-24T10:37:58;24.50;99.90
19483;DHT22;9882;51.166;6.992;2023-06-24T10:40:37;24.50;99.90
19483;DHT22;9882;51.166;6.992;2023-06-24T10:43:26;24.50;99.90
19483;DHT22;9882;51.166;6.992;2023-06-24T10:45:57;24.40;99.90
19483;DHT22;9882;51.166;6.992;2023-06-24T10:48:26;24.50;99.90
19483;DHT22;9882;51.166;6.992;2023-06-24T10:50:54;24.60;99.90
19483;DHT22;9882;51.166;6.992;2023-06-24T10:53:23;24.60;99.90
19483;DHT22;9882;51.166;6.992;2023-06-24T10:55:52;24.50;99.90
19483;DHT22;9882;51.166;6.992;2023-06-24T10:58:20;24.70;99.90
19483;DHT22;9882;51.166;6.992;2023-06-24T11:00:49;24.80;99.90
19483;DHT22;9882;51.166;6.992;2023-06-24T11:03:18;24.70;99.90
19483;DHT22;9882;51.166;6.992;2023-06-24T11:05:48;24.60;99.90
19483;DHT22;9882;51.166;6.992;2023-06-24T11:08:17;24.90;99.90
19483;DHT22;9882;51.166;6.992;2023-06-24T11:10:47;25.10;99.90
19483;DHT22;9882;51.166;6.992;2023-06-24T11:13:15;25.10;99.90
19483;DHT22;9882;51.166;6.992;2023-06-24T11:15:48;24.90;99.90
19483;DHT22;9882;51.166;6.992;2023-06-24T11:18:16;25.10;99.90
19483;DHT22;9882;51.166;6.992;2023-06-24T11:20:46;25.20;99.90
19483;DHT22;9882;51.166;6.992;2023-06-24T11:23:15;25.20;99.90
19483;DHT22;9882;51.166;6.992;2023-06-24T11:25:43;25.30;99.90
19483;DHT22;9882;51.166;6.992;2023-06-24T11:28:13;25.00;99.90
19483;DHT22;9882;51.166;6.992;2023-06-24T11:30:42;25.10;99.90
19483;DHT22;9882;51.166;6.992;2023-06-24T11:33:10;25.20;99.90
19483;DHT22;9882;51.166;6.992;2023-06-24T11:35:39;25.40;99.90
19483;DHT22;9882;51.166;6.992;2023-06-24T11:38:09;25.30;99.90
19483;DHT22;9882;51.166;6.992;2023-06-24T11:40:38;25.40;99.90
19483;DHT22;9882;51.166;6.992;2023-06-24T11:43:07;25.30;99.90
19483;DHT22;9882;51.166;6.992;2023-06-24T11:45:36;25.40;99.90
19483;DHT22;9882;51.166;6.992;2023-06-24T11:48:04;25.60;99.90
19483;DHT22;9882;51.166;6.992;2023-06-24T11:50:35;25.50;99.90
19483;DHT22;9882;51.166;6.992;2023-06-24T11:53:04;25.40;99.90
19483;DHT22;9882;51.166;6.992;2023-06-24T11:55:34;25.40;99.90
19483;DHT22;9882;51.166;6.992;2023-06-24T11:58:04;25.80;99.90
19483;DHT22;9882;51.166;6.992;2023-06-24T12:00:35;25.80;99.90
19483;DHT22;9882;51.166;6.992;2023-06-24T12:03:05;26.00;99.90
19483;DHT22;9882;51.166;6.992;2023-06-24T12:05:37;26.00;99.90
19483;DHT22;9882;51.166;6.992;2023-06-24T12:08:09;25.90;99.20
19483;DHT22;9882;51.166;6.992;2023-06-24T12:10:39;26.00;99.50
19483;DHT22;9882;51.166;6.992;2023-06-24T12:13:08;26.20;99.90
19483;DHT22;9882;51.166;6.992;2023-06-24T12:15:36;26.20;99.50
19483;DHT22;9882;51.166;6.992;2023-06-24T12:18:05;26.40;99.90
19483;DHT22;9882;51.166;6.992;2023-06-24T12:20:34;26.50;99.90
19483;DHT22;9882;51.166;6.992;2023-06-24T12:23:04;26.40;99.90
19483;DHT22;9882;51.166;6.992;2023-06-24T12:25:33;26.60;99.90
19483;DHT22;9882;51.166;6.992;2023-06-24T12:28:03;26.70;99.90
19483;DHT22;9882;51.166;6.992;2023-06-24T12:30:31;26.90;99.90
19483;DHT22;9882;51.166;6.992;2023-06-24T12:33:00;27.00;99.90
19483;DHT22;9882;51.166;6.992;2023-06-24T12:35:30;27.00;99.90
19483;DHT22;9882;51.166;6.992;2023-06-24T12:37:58;27.00;99.90
19483;DHT22;9882;51.166;6.992;2023-06-24T12:40:27;26.90;99.90
19483;DHT22;9882;51.166;6.992;2023-06-24T12:42:55;27.10;99.90
19483;DHT22;9882;51.166;6.992;2023-06-24T12:45:26;27.10;99.90
19483;DHT22;9882;51.166;6.992;2023-06-24T12:47:54;27.10;97.70
19483;DHT22;9882;51.166;6.992;2023-06-24T12:50:23;27.20;93.40
19483;DHT22;9882;51.166;6.992;2023-06-24T12:52:51;27.20;98.40
19483;DHT22;9882;51.166;6.992;2023-06-24T12:55:20;27.30;99.40
19483;DHT22;9882;51.166;6.992;2023-06-24T12:57:48;27.20;98.50
19483;DHT22;9882;51.166;6.992;2023-06-24T13:00:19;27.10;99.20
19483;DHT22;9882;51.166;6.992;2023-06-24T13:02:50;27.20;99.90
19483;DHT22;9882;51.166;6.992;2023-06-24T13:05:19;27.40;99.90
19483;DHT22;9882;51.166;6.992;2023-06-24T13:07:48;27.80;99.90
19483;DHT22;9882;51.166;6.992;2023-06-24T13:10:16;27.40;96.30
19483;DHT22;9882;51.166;6.992;2023-06-24T13:12:45;27.40;99.50
19483;DHT22;9882;51.166;6.992;2023-06-24T13:15:13;27.60;99.90
19483;DHT22;9882;51.166;6.992;2023-06-24T13:17:42;27.20;96.00
19483;DHT22;9882;51.166;6.992;2023-06-24T13:20:13;27.20;98.30
19483;DHT22;9882;51.166;6.992;2023-06-24T13:22:41;27.40;97.60
19483;DHT22;9882;51.166;6.992;2023-06-24T13:25:10;27.80;98.10
19483;DHT22;9882;51.166;6.992;2023-06-24T13:27:39;28.50;99.90
19483;DHT22;9882;51.166;6.992;2023-06-24T13:30:08;29.00;98.20
19483;DHT22;9882;51.166;6.992;2023-06-24T13:32:37;29.20;90.90
19483;DHT22;9882;51.166;6.992;2023-06-24T13:35:06;29.20;90.50
19483;DHT22;9882;51.166;6.992;2023-06-24T13:37:37;29.40;91.70
19483;DHT22;9882;51.166;6.992;2023-06-24T13:40:07;29.90;91.20
19483;DHT22;9882;51.166;6.992;2023-06-24T13:42:36;30.20;98.70
19483;DHT22;9882;51.166;6.992;2023-06-24T13:45:05;30.40;84.90
19483;DHT22;9882;51.166;6.992;2023-06-24T13:47:34;30.40;84.10
19483;DHT22;9882;51.166;6.992;2023-06-24T13:50:03;30.20;78.70
19483;DHT22;9882;51.166;6.992;2023-06-24T13:52:32;30.50;73.40
19483;DHT22;9882;51.166;6.992;2023-06-24T13:55:02;31.00;74.70
19483;DHT22;9882;51.166;6.992;2023-06-24T13:57:30;30.40;68.70
19483;DHT22;9882;51.166;6.992;2023-06-24T13:59:59;31.30;68.00
19483;DHT22;9882;51.166;6.992;2023-06-24T14:02:27;31.10;68.00
19483;DHT22;9882;51.166;6.992;2023-06-24T14:04:56;31.80;71.70
19483;DHT22;9882;51.166;6.992;2023-06-24T14:07:24;30.90;63.20
19483;DHT22;9882;51.166;6.992;2023-06-24T14:09:53;31.40;74.90
19483;DHT22;9882;51.166;6.992;2023-06-24T14:12:23;32.00;59.30
19483;DHT22;9882;51.166;6.992;2023-06-24T14:14:51;31.80;59.70
19483;DHT22;9882;51.166;6.992;2023-06-24T14:17:20;32.30;80.90
19483;DHT22;9882;51.166;6.992;2023-06-24T14:19:48;33.00;69.30
19483;DHT22;9882;51.166;6.992;2023-06-24T14:22:17;32.60;61.00
19483;DHT22;9882;51.166;6.992;2023-06-24T14:24:46;32.30;67.10
19483;DHT22;9882;51.166;6.992;2023-06-24T14:27:14;31.20;53.80
19483;DHT22;9882;51.166;6.992;2023-06-24T14:29:44;31.20;60.30
19483;DHT22;9882;51.166;6.992;2023-06-24T14:32:12;31.90;60.20
19483;DHT22;9882;51.166;6.992;2023-06-24T14:34:41;32.10;71.40
19483;DHT22;9882;51.166;6.992;2023-06-24T14:37:10;33.00;74.30
19483;DHT22;9882;51.166;6.992;2023-06-24T14:39:40;33.20;80.20
19483;DHT22;9882;51.166;6.992;2023-06-24T14:42:08;33.90;65.10
19483;DHT22;9882;51.166;6.992;2023-06-24T14:44:37;33.30;66.10
19483;DHT22;9882;51.166;6.992;2023-06-24T14:47:07;33.90;74.10
19483;DHT22;9882;51.166;6.992;2023-06-24T14:49:35;33.70;63.40
19483;DHT22;9882;51.166;6.992;2023-06-24T14:52:04;32.50;54.00
19483;DHT22;9882;51.166;6.992;2023-06-24T14:54:33;32.80;55.70
19483;DHT22;9882;51.166;6.992;2023-06-24T14:57:01;32.10;56.20
19483;DHT22;9882;51.166;6.992;2023-06-24T14:59:30;32.60;53.70
19483;DHT22;9882;51.166;6.992;2023-06-24T15:01:58;32.10;51.60
19483;DHT22;9882;51.166;6.992;2023-06-24T15:04:28;33.10;64.90
19483;DHT22;9882;51.166;6.992;2023-06-24T15:06:57;33.00;50.00
19483;DHT22;9882;51.166;6.992;2023-06-24T15:09:25;32.50;60.70
19483;DHT22;9882;51.166;6.992;2023-06-24T15:11:54;33.20;60.80
19483;DHT22;9882;51.166;6.992;2023-06-24T15:14:22;33.50;48.20
19483;DHT22;9882;51.166;6.992;2023-06-24T15:16:51;32.70;58.30
19483;DHT22;9882;51.166;6.992;2023-06-24T15:19:21;34.00;65.50
19483;DHT22;9882;51.166;6.992;2023-06-24T15:21:51;34.60;66.10
19483;DHT22;9882;51.166;6.992;2023-06-24T15:24:19;33.70;45.00
19483;DHT22;9882;51.166;6.992;2023-06-24T15:26:48;34.40;58.40
19483;DHT22;9882;51.166;6.992;2023-06-24T15:29:16;35.10;65.20
19483;DHT22;9882;51.166;6.992;2023-06-24T15:31:45;34.10;50.00
19483;DHT22;9882;51.166;6.992;2023-06-24T15:34:13;34.50;62.30
19483;DHT22;9882;51.166;6.992;2023-06-24T15:36:42;34.30;64.70
19483;DHT22;9882;51.166;6.992;2023-06-24T15:39:12;33.30;43.20
19483;DHT22;9882;51.166;6.992;2023-06-24T15:41:46;33.50;50.30
19483;DHT22;9882;51.166;6.992;2023-06-24T15:44:15;33.70;43.80
19483;DHT22;9882;51.166;6.992;2023-06-24T15:46:43;33.40;41.70
19483;DHT22;9882;51.166;6.992;2023-06-24T15:49:14;34.10;43.30
19483;DHT22;9882;51.166;6.992;2023-06-24T15:51:42;32.10;39.30
19483;DHT22;9882;51.166;6.992;2023-06-24T15:54:12;32.80;40.40
19483;DHT22;9882;51.166;6.992;2023-06-24T15:56:41;33.70;54.10
19483;DHT22;9882;51.166;6.992;2023-06-24T15:59:10;35.00;53.40
19483;DHT22;9882;51.166;6.992;2023-06-24T16:01:39;35.60;44.90
19483;DHT22;9882;51.166;6.992;2023-06-24T16:04:08;34.40;44.40
19483;DHT22;9882;51.166;6.992;2023-06-24T16:06:37;35.00;55.40